createdAt,value
2022-09-30T07:23:00.137Z,11.40
2022-09-30T07:27:55.060Z,11.60
2022-09-30T07:32:48.993Z,11.80
2022-09-30T07:37:42.693Z,12.00
2022-09-30T07:42:39.284Z,12.20
2022-09-30T07:47:32.896Z,12.50
2022-09-30T07:52:26.666Z,12.70
2022-09-30T07:57:21.832Z,12.90
2022-09-30T08:02:18.911Z,13.10
2022-09-30T08:07:13.820Z,13.10
2022-09-30T08:12:07.668Z,13.00
2022-09-30T08:17:01.680Z,13.00
2022-09-30T08:21:57.801Z,13.10
2022-09-30T08:26:51.807Z,13.30
2022-09-30T08:31:45.506Z,13.60
2022-09-30T08:36:39.341Z,13.80
2022-09-30T08:42:08.785Z,13.90
2022-09-30T08:47:22.250Z,14.00
2022-09-30T08:52:30.597Z,14.30
2022-09-30T08:57:47.117Z,14.40
2022-09-30T09:02:47.878Z,14.40
2022-09-30T09:07:51.176Z,14.50
2022-09-30T09:12:57.546Z,14.70
2022-09-30T09:18:25.830Z,14.80
2022-09-30T09:23:19.663Z,15.20
2022-09-30T09:28:26.637Z,15.90
2022-09-30T09:33:23.325Z,16.30
2022-09-30T09:38:26.774Z,16.80
2022-09-30T09:43:31.121Z,17.10
2022-09-30T09:48:24.817Z,17.30
2022-09-30T09:53:41.581Z,17.30
2022-09-30T09:58:37.829Z,17.20
2022-09-30T10:03:31.436Z,17.50
2022-09-30T10:08:25.625Z,17.70
2022-09-30T10:13:25.365Z,18.20
2022-09-30T10:18:25.307Z,18.60
2022-09-30T10:23:22.486Z,18.80
2022-09-30T10:28:25.269Z,18.70
2022-09-30T10:33:43.578Z,18.70
2022-09-30T10:43:41.138Z,18.80
2022-09-30T10:48:38.758Z,18.50
2022-09-30T10:53:35.340Z,18.40
2022-09-30T10:58:47.562Z,18.10
2022-09-30T11:03:50.804Z,18.10
2022-09-30T11:08:55.600Z,18.30
2022-09-30T11:13:57.261Z,18.40
2022-09-30T11:18:59.630Z,18.60
2022-09-30T11:23:59.221Z,18.80
2022-09-30T11:29:06.346Z,18.80
2022-09-30T11:34:15.657Z,18.70
2022-09-30T11:39:33.383Z,18.50
2022-09-30T11:44:34.210Z,18.40
2022-09-30T11:49:54.195Z,18.50
2022-09-30T11:55:02.314Z,18.80
2022-09-30T12:00:00.526Z,19.20
2022-09-30T12:05:00.679Z,19.00
2022-09-30T12:10:01.203Z,19.00
2022-09-30T12:14:59.518Z,19.10
2022-09-30T12:19:57.958Z,18.80
2022-09-30T12:24:51.681Z,18.60
2022-09-30T12:30:11.501Z,18.40
2022-09-30T12:35:22.018Z,18.40
2022-09-30T12:40:33.218Z,18.40
2022-09-30T12:45:55.171Z,18.50
2022-09-30T12:50:53.120Z,18.30
2022-09-30T12:55:48.042Z,18.40
2022-09-30T13:00:42.135Z,18.10
2022-09-30T13:05:53.563Z,17.80
2022-09-30T13:10:57.837Z,17.50
2022-09-30T13:15:52.445Z,17.40
2022-09-30T13:20:56.774Z,17.30
2022-09-30T13:25:56.779Z,17.00
2022-09-30T13:30:50.503Z,16.90
2022-09-30T13:35:55.160Z,16.80
2022-09-30T13:41:01.829Z,16.70
2022-09-30T13:45:58.343Z,16.50
2022-09-30T13:50:55.655Z,16.40
2022-09-30T13:55:54.073Z,16.40
2022-09-30T14:00:57.784Z,16.40
2022-09-30T14:05:59.101Z,16.40
2022-09-30T14:11:08.777Z,16.40
2022-09-30T14:16:44.925Z,16.40
2022-09-30T14:21:45.951Z,16.40
2022-09-30T14:27:05.722Z,16.30
2022-09-30T14:32:00.097Z,16.20
2022-09-30T14:36:56.768Z,16.10
2022-09-30T14:41:55.961Z,16.00
2022-09-30T14:46:51.493Z,15.90
2022-09-30T14:51:48.628Z,15.80
2022-09-30T14:56:43.886Z,15.70
2022-09-30T15:01:37.757Z,15.60
2022-09-30T15:06:34.944Z,15.60
2022-09-30T15:11:30.102Z,15.60
2022-09-30T15:16:30.311Z,15.50
2022-09-30T15:21:25.814Z,15.40
2022-09-30T15:26:20.962Z,15.40
2022-09-30T15:31:25.912Z,15.40
2022-09-30T15:36:23.328Z,15.40
2022-09-30T15:41:17.462Z,15.40
2022-09-30T15:46:26.129Z,15.30
2022-09-30T15:51:33.414Z,15.20
2022-09-30T15:56:32.998Z,15.20
2022-09-30T16:01:28.387Z,15.10
2022-09-30T16:06:26.889Z,15.00
2022-09-30T16:11:25.049Z,15.00
2022-09-30T16:16:22.766Z,14.90
2022-09-30T16:21:44.593Z,14.80
2022-09-30T16:26:46.042Z,14.80
2022-09-30T16:31:39.848Z,14.80
2022-09-30T16:36:34.509Z,14.70
2022-09-30T16:41:28.910Z,14.70
2022-09-30T16:46:23.982Z,14.60
2022-09-30T16:51:18.179Z,14.60
2022-09-30T16:56:17.191Z,14.60
